Pagrindinis puslapis
METAR-TAF:

METAR-TAF

Oro uostai :

Lakselv, Norvegija

platuma: 70-04N, ilguma: 024-59E, Aukštis: 0 m

Dabartinis oras

Ataskaita buvo paskelbta 42 minutes, ne 12:50 UTC
Vėjas 11 kt iš Rytų/Šiaurės Rytų
Temperatūra -1°C
Drėgmė 50%
Slėgis 1025 hPa
Matomumas 10 km arba daugiau

METAR: ENNA 201250Z AUTO 06011KT 9999 FEW038/// M01/M10 Q1025 RMK WIND 1800FT 09016KT

Laikas: 15:32 (13:32 UTC)

Prognozė

Ataskaita buvo paskelbta 2 valandos ir 32 minutes, ne 11:00 UTC
Prognozė galioja nuo 20 metu 12 UTC su 21 metu 12 UTC
Vėjas 8 kt iš Šiaurės Rytų
Matomumas 10 km arba daugiau
Išsisklaidę debesys ne aukštis 3000 ft

TAF: ENNA 201100Z 2012/2112 05008KT 9999 SCT030

Orai ataskaitas ir orų prognozės (METAR, TAF).

turimą stotys yra geltonos ir raudonos taškus žemėlapyje.

Perkelti pele per norėdami pamatyti stoties vardą.

Tada spustelėkite, norėdami matyti oro stebėjimo ir prognozės.

Norėdami pakeisti žemėlapį: spustelėkite ant žalios mygtukų su juodo kryžiaus žemyn,; žalią mygtuką su brūkšneliu, jei norite nutolinti; arba žalių rodyklių gretimoms žemėlapius.


METAR-TAF: